createdAt,value
2022-08-11T00:01:59.603Z,21.00
2022-08-11T00:04:37.308Z,21.00
2022-08-11T00:07:07.056Z,20.90
2022-08-11T00:09:39.531Z,20.90
2022-08-11T00:12:18.101Z,20.90
2022-08-11T00:14:46.333Z,20.90
2022-08-11T00:17:15.547Z,20.80
2022-08-11T00:20:13.898Z,20.80
2022-08-11T00:22:34.184Z,20.80
2022-08-11T00:25:19.020Z,20.80
2022-08-11T00:27:47.812Z,20.70
2022-08-11T00:30:16.238Z,20.60
2022-08-11T00:32:46.504Z,20.60
2022-08-11T00:35:56.230Z,20.60
2022-08-11T00:38:04.769Z,20.50
2022-08-11T00:40:57.422Z,20.50
2022-08-11T00:44:12.023Z,20.50
2022-08-11T00:47:12.800Z,20.50
2022-08-11T00:49:46.614Z,20.40
2022-08-11T00:52:29.986Z,20.30
2022-08-11T00:55:03.651Z,20.30
2022-08-11T00:57:39.853Z,20.20
2022-08-11T01:00:23.888Z,20.30
2022-08-11T01:03:08.959Z,20.30
2022-08-11T01:06:03.937Z,20.20
2022-08-11T01:08:52.418Z,20.20
2022-08-11T01:11:55.251Z,20.20
2022-08-11T01:14:49.931Z,20.20
2022-08-11T01:18:13.883Z,20.10
2022-08-11T01:21:03.816Z,20.20
2022-08-11T01:24:17.414Z,20.10
2022-08-11T01:26:44.189Z,20.10
2022-08-11T01:29:53.601Z,20.00
2022-08-11T01:33:13.682Z,20.00
2022-08-11T01:36:07.476Z,20.00
2022-08-11T01:39:21.023Z,19.90
2022-08-11T01:42:20.090Z,19.90
2022-08-11T01:45:07.241Z,19.90
2022-08-11T01:48:03.971Z,19.90
2022-08-11T01:50:39.218Z,19.90
2022-08-11T01:53:23.831Z,19.90
2022-08-11T01:56:06.596Z,19.80
2022-08-11T01:59:08.787Z,19.90
2022-08-11T02:01:53.523Z,19.90
2022-08-11T02:04:34.704Z,19.90
2022-08-11T02:07:42.978Z,19.80
2022-08-11T02:10:50.524Z,19.70
2022-08-11T02:13:58.349Z,19.70
2022-08-11T02:16:28.132Z,19.70
2022-08-11T02:19:40.536Z,19.70
2022-08-11T02:22:37.588Z,19.70
2022-08-11T02:25:12.941Z,19.70
2022-08-11T02:28:21.268Z,19.70
2022-08-11T02:32:15.890Z,19.70
2022-08-11T02:34:32.194Z,19.60
2022-08-11T02:37:16.002Z,19.60
2022-08-11T02:40:23.232Z,19.60
2022-08-11T02:43:10.216Z,19.60
2022-08-11T02:45:49.060Z,19.60
2022-08-11T02:49:06.233Z,19.60
2022-08-11T02:51:43.138Z,19.60
2022-08-11T02:54:44.543Z,19.60
2022-08-11T02:57:37.396Z,19.60
2022-08-11T03:00:09.013Z,19.50
2022-08-11T03:02:43.559Z,19.60
2022-08-11T03:05:20.875Z,19.50
2022-08-11T03:08:10.228Z,19.50
2022-08-11T03:11:33.490Z,19.50
2022-08-11T03:14:31.497Z,19.50
2022-08-11T03:17:10.822Z,19.40
2022-08-11T03:19:52.211Z,19.40
2022-08-11T03:22:25.089Z,19.40
2022-08-11T03:25:21.647Z,19.40
2022-08-11T03:28:21.192Z,19.30
2022-08-11T03:31:44.675Z,19.30
2022-08-11T03:34:25.156Z,19.20
2022-08-11T03:37:16.130Z,19.20
2022-08-11T03:40:09.221Z,19.20
2022-08-11T03:42:57.773Z,19.10
2022-08-11T03:46:01.153Z,19.00
2022-08-11T03:48:54.309Z,19.00
2022-08-11T03:51:52.124Z,18.90
2022-08-11T03:54:37.940Z,18.90
2022-08-11T03:57:29.303Z,18.80
2022-08-11T04:00:20.315Z,18.70
2022-08-11T04:03:17.584Z,18.70
2022-08-11T04:06:22.349Z,18.80
2022-08-11T04:09:23.442Z,18.80
2022-08-11T04:12:07.860Z,18.80
2022-08-11T04:15:15.177Z,18.80
2022-08-11T04:17:50.674Z,18.70
2022-08-11T04:20:54.685Z,18.70
2022-08-11T04:24:36.255Z,18.70
2022-08-11T04:26:44.818Z,18.70
2022-08-11T04:30:00.354Z,18.60
2022-08-11T04:32:46.973Z,18.70
2022-08-11T04:35:50.776Z,18.70
2022-08-11T04:38:58.792Z,18.70
2022-08-11T04:42:14.995Z,18.60
2022-08-11T04:45:20.207Z,18.70
2022-08-11T04:48:23.555Z,18.70
2022-08-11T04:51:50.923Z,18.70
2022-08-11T04:55:20.036Z,18.80
2022-08-11T04:58:31.515Z,18.80
2022-08-11T05:01:43.014Z,18.80
2022-08-11T05:04:40.341Z,18.80
2022-08-11T05:07:26.017Z,18.80
2022-08-11T05:10:18.881Z,18.80
2022-08-11T05:12:48.731Z,18.90
2022-08-11T05:15:42.699Z,19.00
2022-08-11T05:18:40.013Z,18.90
2022-08-11T05:21:29.132Z,19.00
2022-08-11T05:24:26.185Z,19.10
2022-08-11T05:27:14.061Z,19.10
2022-08-11T05:30:10.951Z,19.20
2022-08-11T05:33:02.353Z,19.20
2022-08-11T05:36:00.069Z,19.40
2022-08-11T05:38:46.876Z,19.50
2022-08-11T05:41:33.061Z,19.60
2022-08-11T05:44:22.335Z,19.70
2022-08-11T05:47:09.322Z,19.80
2022-08-11T05:49:56.681Z,19.90
2022-08-11T05:52:49.262Z,20.10
2022-08-11T05:56:02.349Z,20.40
2022-08-11T05:58:42.344Z,20.50
2022-08-11T06:01:14.345Z,20.70
2022-08-11T06:04:03.884Z,20.70
2022-08-11T06:06:31.631Z,20.90
2022-08-11T06:09:00.639Z,20.90
2022-08-11T06:11:43.553Z,21.10
2022-08-11T06:14:13.297Z,21.00
2022-08-11T06:16:42.615Z,21.20
2022-08-11T06:19:10.633Z,21.30
2022-08-11T06:21:38.385Z,21.40
2022-08-11T06:24:12.052Z,21.40
2022-08-11T06:27:08.743Z,21.60
2022-08-11T06:29:38.094Z,21.80
2022-08-11T06:32:16.157Z,21.90
2022-08-11T06:34:48.685Z,22.10
2022-08-11T06:37:36.815Z,22.10
2022-08-11T06:40:36.346Z,22.20
2022-08-11T06:43:23.202Z,22.30
2022-08-11T06:45:55.972Z,22.40
2022-08-11T06:48:24.477Z,22.60
2022-08-11T06:51:12.452Z,22.70
2022-08-11T06:54:04.383Z,22.90
2022-08-11T06:57:26.241Z,23.10
2022-08-11T07:00:03.898Z,23.20
2022-08-11T07:02:34.463Z,23.30
2022-08-11T07:05:48.296Z,23.40
2022-08-11T07:09:06.303Z,23.40
2022-08-11T07:12:18.139Z,23.40
2022-08-11T07:15:07.381Z,23.70
2022-08-11T07:17:42.699Z,23.70
2022-08-11T07:20:29.415Z,23.90
2022-08-11T07:23:17.591Z,24.00
2022-08-11T07:26:08.233Z,24.20
2022-08-11T07:28:58.353Z,24.40
2022-08-11T07:31:40.643Z,24.40
2022-08-11T07:34:19.402Z,24.40
2022-08-11T07:36:51.317Z,24.60
2022-08-11T07:39:40.973Z,24.60
2022-08-11T07:42:10.622Z,24.60
2022-08-11T07:45:00.508Z,24.70
2022-08-11T07:47:47.791Z,24.80
2022-08-11T07:50:34.351Z,24.90
2022-08-11T07:53:04.060Z,24.90
2022-08-11T07:55:51.256Z,25.00
2022-08-11T07:58:45.094Z,25.20
2022-08-11T08:01:37.908Z,25.30
2022-08-11T08:04:26.185Z,25.40
2022-08-11T08:07:12.196Z,25.50
2022-08-11T08:09:58.963Z,25.50
2022-08-11T08:12:45.317Z,25.60
2022-08-11T08:15:33.814Z,25.90
2022-08-11T08:18:20.851Z,26.10
2022-08-11T08:20:50.894Z,26.20
2022-08-11T08:23:34.690Z,26.20
2022-08-11T08:26:04.611Z,26.20
2022-08-11T08:28:33.517Z,26.10
2022-08-11T08:31:00.854Z,26.00
2022-08-11T08:33:32.029Z,26.00
2022-08-11T08:36:12.700Z,26.00
2022-08-11T08:38:47.046Z,26.20
2022-08-11T08:41:18.695Z,26.10
2022-08-11T08:43:51.345Z,26.00
2022-08-11T08:46:24.012Z,26.10
2022-08-11T08:48:52.181Z,26.20
2022-08-11T08:52:00.856Z,26.40
2022-08-11T08:54:30.265Z,26.40
2022-08-11T08:56:57.935Z,26.50
2022-08-11T08:59:47.740Z,26.50
2022-08-11T09:02:18.117Z,26.60
2022-08-11T09:04:46.786Z,26.60
2022-08-11T09:07:16.579Z,26.70
2022-08-11T09:09:54.254Z,26.90
2022-08-11T09:12:35.738Z,26.90
2022-08-11T09:15:09.042Z,26.90
2022-08-11T09:17:41.327Z,27.00
2022-08-11T09:20:29.299Z,27.20
2022-08-11T09:24:06.749Z,27.20
2022-08-11T09:26:22.863Z,27.20
2022-08-11T09:28:58.961Z,27.30
2022-08-11T09:31:26.957Z,27.20
2022-08-11T09:33:55.448Z,27.30
2022-08-11T09:36:41.187Z,27.40
2022-08-11T09:39:30.815Z,27.40
2022-08-11T09:42:02.908Z,27.50
2022-08-11T09:44:50.410Z,27.50
2022-08-11T09:47:26.194Z,27.60
2022-08-11T09:50:00.144Z,27.60
2022-08-11T09:52:29.673Z,27.70
2022-08-11T09:54:57.050Z,27.70
2022-08-11T09:57:43.417Z,27.70
2022-08-11T10:00:14.182Z,27.80
2022-08-11T10:02:45.040Z,27.80
2022-08-11T10:05:36.734Z,27.90
2022-08-11T10:08:05.836Z,27.80
2022-08-11T10:10:36.495Z,27.80
2022-08-11T10:14:04.812Z,27.70
2022-08-11T10:16:00.165Z,27.90
2022-08-11T10:18:52.977Z,27.90
2022-08-11T10:21:37.200Z,28.00
2022-08-11T10:24:25.483Z,28.20
2022-08-11T10:26:55.164Z,28.20
2022-08-11T10:29:49.536Z,28.30
2022-08-11T10:32:58.967Z,28.40
2022-08-11T10:35:32.116Z,28.30
2022-08-11T10:38:06.506Z,28.30
2022-08-11T10:41:06.997Z,28.40
2022-08-11T10:44:02.517Z,28.40
2022-08-11T10:46:40.981Z,28.40
2022-08-11T10:49:09.103Z,28.40
2022-08-11T10:51:58.621Z,28.50
2022-08-11T10:54:45.205Z,28.50
2022-08-11T10:57:33.166Z,28.70
2022-08-11T11:00:00.488Z,28.70
2022-08-11T11:02:29.055Z,28.60
2022-08-11T11:05:15.271Z,28.40
2022-08-11T11:08:32.655Z,28.40
2022-08-11T11:11:01.028Z,28.50
2022-08-11T11:13:55.022Z,28.50
2022-08-11T11:16:44.583Z,28.60
2022-08-11T11:19:13.036Z,28.70
2022-08-11T11:21:42.429Z,28.70
2022-08-11T11:24:13.756Z,28.90
2022-08-11T11:26:40.519Z,28.80
2022-08-11T11:29:44.752Z,28.80
2022-08-11T11:32:30.120Z,28.70
2022-08-11T11:35:20.930Z,28.80
2022-08-11T11:38:04.540Z,28.80
2022-08-11T11:40:33.387Z,28.80
2022-08-11T11:43:01.387Z,28.80
2022-08-11T11:45:28.707Z,28.90
2022-08-11T11:47:59.581Z,28.80
2022-08-11T11:50:34.410Z,28.90
2022-08-11T11:53:04.695Z,28.90
2022-08-11T11:55:32.203Z,28.90
2022-08-11T11:58:23.102Z,29.00
2022-08-11T12:01:10.758Z,29.10
2022-08-11T12:03:39.099Z,29.10
2022-08-11T12:06:08.199Z,29.10
2022-08-11T12:08:36.847Z,29.10
2022-08-11T12:11:25.047Z,29.10
2022-08-11T12:13:58.342Z,29.10
2022-08-11T12:16:33.465Z,29.10
2022-08-11T12:19:06.670Z,29.20
2022-08-11T12:21:36.464Z,29.20
2022-08-11T12:24:22.506Z,29.30
2022-08-11T12:27:17.702Z,29.40
2022-08-11T12:29:56.319Z,29.30
2022-08-11T12:32:33.947Z,29.30
2022-08-11T12:35:01.535Z,29.30
2022-08-11T12:37:36.575Z,29.30
2022-08-11T12:40:43.227Z,29.50
2022-08-11T12:43:39.960Z,29.40
2022-08-11T12:46:13.170Z,29.50
2022-08-11T12:49:07.505Z,29.30
2022-08-11T12:52:11.847Z,29.50
2022-08-11T12:54:52.175Z,29.50
2022-08-11T12:57:55.705Z,29.50
2022-08-11T13:00:42.628Z,29.60
2022-08-11T13:03:29.836Z,29.60
2022-08-11T13:06:00.601Z,29.70
2022-08-11T13:08:29.605Z,29.70
2022-08-11T13:11:19.105Z,29.70
2022-08-11T13:13:53.663Z,29.60
2022-08-11T13:16:57.753Z,29.70
2022-08-11T13:19:25.247Z,29.80
2022-08-11T13:21:53.181Z,29.80
2022-08-11T13:24:21.748Z,29.80
2022-08-11T13:26:50.594Z,29.70
2022-08-11T13:29:22.874Z,29.80
2022-08-11T13:31:50.708Z,29.90
2022-08-11T13:34:20.346Z,29.90
2022-08-11T13:36:54.109Z,29.90
2022-08-11T13:39:26.904Z,30.00
2022-08-11T13:41:56.688Z,30.00
2022-08-11T13:44:27.361Z,30.00
2022-08-11T13:47:03.907Z,29.90
2022-08-11T13:49:33.246Z,30.00
2022-08-11T13:52:01.023Z,30.10
2022-08-11T13:54:31.585Z,30.20
2022-08-11T13:57:03.560Z,30.30
2022-08-11T13:59:44.009Z,30.30
2022-08-11T14:02:29.465Z,30.30
2022-08-11T14:05:07.330Z,30.40
2022-08-11T14:07:49.684Z,30.30
2022-08-11T14:10:20.370Z,30.20
2022-08-11T14:13:18.690Z,30.10
2022-08-11T14:15:48.325Z,30.30
2022-08-11T14:18:19.654Z,30.40
2022-08-11T14:21:10.809Z,30.50
2022-08-11T14:23:50.739Z,30.50
2022-08-11T14:26:31.110Z,30.60
2022-08-11T14:29:14.034Z,30.70
2022-08-11T14:31:45.576Z,30.50
2022-08-11T14:34:14.590Z,30.50
2022-08-11T14:36:47.150Z,30.70
2022-08-11T14:39:18.247Z,30.70
2022-08-11T14:42:13.265Z,30.80
2022-08-11T14:45:05.067Z,30.90
2022-08-11T14:47:35.774Z,30.90
2022-08-11T14:50:11.341Z,31.00
2022-08-11T14:53:07.648Z,31.10
2022-08-11T14:55:59.474Z,31.50
2022-08-11T14:58:28.570Z,31.90
2022-08-11T15:00:58.554Z,32.40
2022-08-11T15:03:28.316Z,33.20
2022-08-11T15:05:58.642Z,34.00
2022-08-11T15:08:56.607Z,34.80
2022-08-11T15:11:47.390Z,35.90
2022-08-11T15:14:14.726Z,36.30
2022-08-11T15:17:02.551Z,36.70
2022-08-11T15:19:40.125Z,37.10
2022-08-11T15:22:29.052Z,37.00
2022-08-11T15:24:58.639Z,37.30
2022-08-11T15:27:45.683Z,38.90
2022-08-11T15:30:32.876Z,39.80
2022-08-11T15:33:27.892Z,40.10
2022-08-11T15:36:15.634Z,39.90
2022-08-11T15:38:55.823Z,40.30
2022-08-11T15:41:54.234Z,39.50
2022-08-11T15:45:02.189Z,39.00
2022-08-11T15:47:41.679Z,40.00
2022-08-11T15:50:15.065Z,39.70
2022-08-11T15:52:56.316Z,38.30
2022-08-11T15:55:25.290Z,38.90
2022-08-11T15:58:13.797Z,39.30
2022-08-11T16:01:08.719Z,39.60
2022-08-11T16:04:07.709Z,39.80
2022-08-11T16:06:57.866Z,39.30
2022-08-11T16:09:47.695Z,39.10
2022-08-11T16:12:35.356Z,39.20
2022-08-11T16:15:26.076Z,39.40
2022-08-11T16:17:57.491Z,38.70
2022-08-11T16:20:27.027Z,39.10
2022-08-11T16:23:02.000Z,39.10
2022-08-11T16:27:01.456Z,37.40
2022-08-11T16:28:21.841Z,36.00
2022-08-11T16:30:48.964Z,35.10
2022-08-11T16:33:47.973Z,35.30
2022-08-11T16:36:24.193Z,34.70
2022-08-11T16:38:52.589Z,34.20
2022-08-11T16:41:41.227Z,33.40
2022-08-11T16:44:37.007Z,32.80
2022-08-11T16:47:06.402Z,32.70
2022-08-11T16:49:52.223Z,32.20
2022-08-11T16:52:21.993Z,31.80
2022-08-11T16:54:48.972Z,31.60
2022-08-11T16:57:39.200Z,31.40
2022-08-11T17:00:12.394Z,31.20
2022-08-11T17:03:04.672Z,31.00
2022-08-11T17:05:54.313Z,30.90
2022-08-11T17:08:54.269Z,30.80
2022-08-11T17:11:47.459Z,30.70
2022-08-11T17:14:35.236Z,30.60
2022-08-11T17:17:08.584Z,30.50
2022-08-11T17:20:39.493Z,30.40
2022-08-11T17:22:49.187Z,30.30
2022-08-11T17:25:17.259Z,30.00
2022-08-11T17:27:46.348Z,29.90
2022-08-11T17:30:14.816Z,29.70
2022-08-11T17:33:05.545Z,29.60
2022-08-11T17:35:40.338Z,29.60
2022-08-11T17:38:14.255Z,29.50
2022-08-11T17:41:10.766Z,29.40
2022-08-11T17:44:05.127Z,29.40
2022-08-11T17:46:50.991Z,29.30
2022-08-11T17:49:20.350Z,29.20
2022-08-11T17:52:07.808Z,29.10
2022-08-11T17:54:55.152Z,29.00
2022-08-11T17:57:47.503Z,28.90
2022-08-11T18:00:15.460Z,28.90
2022-08-11T18:03:05.396Z,28.80
2022-08-11T18:05:35.813Z,28.70
2022-08-11T18:08:26.342Z,28.60
2022-08-11T18:11:17.563Z,28.60
2022-08-11T18:14:25.764Z,28.50
2022-08-11T18:17:11.506Z,28.30
2022-08-11T18:19:56.826Z,28.20
2022-08-11T18:22:46.808Z,28.10
2022-08-11T18:25:34.952Z,28.00
2022-08-11T18:28:25.157Z,27.90
2022-08-11T18:31:17.561Z,27.70
2022-08-11T18:34:09.203Z,27.60
2022-08-11T18:37:00.256Z,27.50
2022-08-11T18:39:54.535Z,27.30
2022-08-11T18:42:42.759Z,27.20
2022-08-11T18:45:38.455Z,27.10
2022-08-11T18:48:34.120Z,27.00
2022-08-11T18:51:29.814Z,26.90
2022-08-11T18:54:20.800Z,26.70
2022-08-11T18:57:07.425Z,26.70
2022-08-11T18:59:57.722Z,26.50
2022-08-11T19:02:49.152Z,26.40
2022-08-11T19:06:32.010Z,26.40
2022-08-11T19:08:48.717Z,26.20
2022-08-11T19:11:34.482Z,26.10
2022-08-11T19:14:30.605Z,25.90
2022-08-11T19:17:43.853Z,25.80
2022-08-11T19:20:29.420Z,25.70
2022-08-11T19:23:16.282Z,25.60
2022-08-11T19:26:06.465Z,25.40
2022-08-11T19:28:53.911Z,25.20
2022-08-11T19:31:44.436Z,25.00
2022-08-11T19:34:34.480Z,24.80
2022-08-11T19:37:24.391Z,24.60
2022-08-11T19:40:18.279Z,24.50
2022-08-11T19:43:20.617Z,24.30
2022-08-11T19:46:13.810Z,24.10
2022-08-11T19:49:00.325Z,23.90
2022-08-11T19:51:47.543Z,23.80
2022-08-11T19:54:42.899Z,23.70
2022-08-11T19:57:29.463Z,23.50
2022-08-11T20:00:16.158Z,23.40
2022-08-11T20:03:04.912Z,23.30
2022-08-11T20:05:59.992Z,23.20
2022-08-11T20:08:48.701Z,23.00
2022-08-11T20:11:36.374Z,23.00
2022-08-11T20:14:22.758Z,22.90
2022-08-11T20:17:09.986Z,22.90
2022-08-11T20:19:57.442Z,22.70
2022-08-11T20:22:45.200Z,22.60
2022-08-11T20:25:32.296Z,22.50
2022-08-11T20:28:17.861Z,22.40
2022-08-11T20:31:04.371Z,22.40
2022-08-11T20:33:51.750Z,22.30
2022-08-11T20:36:37.096Z,22.30
2022-08-11T20:39:23.768Z,22.20
2022-08-11T20:42:11.220Z,22.20
2022-08-11T20:44:59.498Z,22.00
2022-08-11T20:47:59.588Z,21.90
2022-08-11T20:50:46.900Z,21.80
2022-08-11T20:53:36.163Z,21.70
2022-08-11T20:56:28.244Z,21.50
2022-08-11T20:59:18.604Z,21.40
2022-08-11T21:02:09.859Z,21.20
2022-08-11T21:04:57.443Z,21.20
2022-08-11T21:07:56.846Z,21.10
2022-08-11T21:10:51.427Z,21.00
2022-08-11T21:13:40.904Z,20.90
2022-08-11T21:16:28.357Z,20.80
2022-08-11T21:20:00.361Z,20.70
2022-08-11T21:22:59.037Z,20.60
2022-08-11T21:25:59.513Z,20.60
2022-08-11T21:28:46.779Z,20.50
2022-08-11T21:31:34.220Z,20.50
2022-08-11T21:34:21.648Z,20.40
2022-08-11T21:37:09.180Z,20.40
2022-08-11T21:39:56.047Z,20.40
2022-08-11T21:42:42.724Z,20.30
2022-08-11T21:45:30.132Z,20.20
2022-08-11T21:48:16.438Z,20.20
2022-08-11T21:51:02.548Z,20.20
2022-08-11T21:53:48.138Z,20.10
2022-08-11T21:56:34.931Z,20.00
2022-08-11T21:59:21.091Z,19.90
2022-08-11T22:02:12.927Z,19.90
2022-08-11T22:05:00.401Z,19.90
2022-08-11T22:07:46.974Z,19.80
2022-08-11T22:10:41.911Z,19.70
2022-08-11T22:13:30.312Z,19.70
2022-08-11T22:16:17.220Z,19.60
2022-08-11T22:19:04.658Z,19.70
2022-08-11T22:22:02.462Z,19.80
2022-08-11T22:24:51.883Z,20.00
2022-08-11T22:27:38.043Z,20.00
2022-08-11T22:30:29.479Z,20.00
2022-08-11T22:33:26.973Z,19.90
2022-08-11T22:36:15.833Z,19.80
2022-08-11T22:39:03.713Z,19.70
2022-08-11T22:41:49.851Z,19.60
2022-08-11T22:44:35.724Z,19.50
2022-08-11T22:47:23.403Z,19.50
2022-08-11T22:50:17.062Z,19.60
2022-08-11T22:53:03.623Z,19.80
2022-08-11T22:55:50.271Z,20.10
2022-08-11T22:58:40.066Z,20.50
2022-08-11T23:01:26.324Z,20.70
2022-08-11T23:04:12.788Z,20.70
2022-08-11T23:07:00.867Z,20.70
2022-08-11T23:09:46.385Z,20.70
2022-08-11T23:12:32.537Z,20.80
2022-08-11T23:15:19.760Z,20.80
2022-08-11T23:18:06.530Z,20.80
2022-08-11T23:20:56.345Z,20.80
2022-08-11T23:23:44.915Z,20.80
2022-08-11T23:26:30.658Z,20.70
2022-08-11T23:29:17.553Z,20.70
2022-08-11T23:32:05.949Z,20.80
2022-08-11T23:35:03.732Z,20.70
2022-08-11T23:37:55.991Z,20.70
2022-08-11T23:40:45.607Z,20.70
2022-08-11T23:43:41.809Z,20.70
2022-08-11T23:46:27.979Z,20.70
2022-08-11T23:49:21.984Z,20.70
2022-08-11T23:52:08.379Z,20.70
2022-08-11T23:54:56.321Z,20.60
2022-08-11T23:57:48.672Z,20.60
